createdAt,value
2018-08-13T00:01:18.885Z,21.41
2018-08-13T00:03:47.988Z,21.48
2018-08-13T00:06:17.075Z,21.37
2018-08-13T00:08:46.232Z,21.39
2018-08-13T00:11:15.354Z,21.41
2018-08-13T00:13:44.480Z,21.44
2018-08-13T00:16:13.616Z,21.42
2018-08-13T00:18:42.765Z,21.41
2018-08-13T00:21:11.845Z,21.33
2018-08-13T00:23:40.919Z,21.34
2018-08-13T00:26:10.044Z,21.27
2018-08-13T00:28:39.151Z,21.35
2018-08-13T00:31:08.252Z,21.28
2018-08-13T00:33:37.372Z,21.29
2018-08-13T00:36:06.523Z,21.24
2018-08-13T00:38:35.587Z,21.19
2018-08-13T00:41:04.805Z,21.11
2018-08-13T00:43:33.907Z,21.12
2018-08-13T00:46:03.059Z,21.04
2018-08-13T00:48:32.273Z,20.97
2018-08-13T00:51:01.443Z,20.97
2018-08-13T00:53:30.524Z,20.94
2018-08-13T00:55:59.752Z,20.85
2018-08-13T00:58:28.916Z,20.80
2018-08-13T01:00:58.021Z,20.74
2018-08-13T01:03:27.168Z,20.68
2018-08-13T01:05:56.356Z,20.56
2018-08-13T01:08:25.460Z,20.54
2018-08-13T01:10:54.608Z,20.54
2018-08-13T01:13:23.741Z,20.53
2018-08-13T01:15:52.932Z,20.70
2018-08-13T01:18:22.027Z,20.67
2018-08-13T01:20:51.150Z,20.59
2018-08-13T01:23:20.288Z,20.60
2018-08-13T01:25:49.397Z,20.54
2018-08-13T01:28:18.516Z,20.45
2018-08-13T01:30:47.598Z,20.42
2018-08-13T01:33:16.793Z,20.36
2018-08-13T01:35:45.996Z,20.37
2018-08-13T01:38:15.117Z,20.27
2018-08-13T01:40:44.212Z,20.12
2018-08-13T01:43:13.356Z,20.18
2018-08-13T01:45:42.456Z,20.17
2018-08-13T01:48:11.611Z,20.18
2018-08-13T01:50:40.691Z,20.19
2018-08-13T01:53:10.690Z,20.07
2018-08-13T01:55:40.062Z,20.00
2018-08-13T01:58:09.195Z,19.98
2018-08-13T02:00:38.313Z,19.90
2018-08-13T02:03:07.463Z,19.83
2018-08-13T02:05:36.685Z,19.80
2018-08-13T02:08:05.817Z,19.76
2018-08-13T02:10:35.039Z,19.70
2018-08-13T02:13:04.177Z,19.79
2018-08-13T02:15:33.274Z,19.79
2018-08-13T02:18:02.368Z,19.86
2018-08-13T02:20:31.536Z,19.86
2018-08-13T02:23:00.704Z,19.79
2018-08-13T02:25:29.813Z,19.84
2018-08-13T02:27:58.932Z,19.80
2018-08-13T02:30:28.021Z,19.79
2018-08-13T02:32:57.181Z,19.80
2018-08-13T02:35:26.364Z,19.80
2018-08-13T02:37:55.436Z,19.78
2018-08-13T02:40:24.541Z,19.75
2018-08-13T02:42:53.696Z,19.71
2018-08-13T02:45:22.794Z,19.62
2018-08-13T02:47:51.881Z,19.61
2018-08-13T02:50:20.990Z,19.68
2018-08-13T02:52:50.065Z,19.73
2018-08-13T02:55:19.194Z,19.69
2018-08-13T02:57:48.407Z,19.67
2018-08-13T03:00:17.528Z,19.70
2018-08-13T03:02:46.688Z,19.65
2018-08-13T03:05:15.903Z,19.72
2018-08-13T03:07:45.006Z,19.77
2018-08-13T03:10:14.334Z,19.70
2018-08-13T03:12:43.547Z,19.72
2018-08-13T03:15:14.100Z,19.71
2018-08-13T03:17:43.274Z,19.76
2018-08-13T03:20:12.375Z,19.73
2018-08-13T03:22:41.495Z,19.66
2018-08-13T03:25:11.132Z,19.59
2018-08-13T03:27:40.265Z,19.55
2018-08-13T03:30:11.748Z,19.51
2018-08-13T03:32:41.348Z,19.52
2018-08-13T03:35:10.605Z,19.54
2018-08-13T03:37:39.923Z,19.46
2018-08-13T03:40:12.135Z,19.43
2018-08-13T03:42:41.259Z,19.45
2018-08-13T03:45:11.724Z,19.45
2018-08-13T03:47:41.236Z,19.42
2018-08-13T03:50:11.660Z,19.37
2018-08-13T03:52:41.056Z,19.31
2018-08-13T03:55:11.157Z,19.34
2018-08-13T03:57:40.884Z,19.30
2018-08-13T04:00:12.484Z,19.22
2018-08-13T04:02:41.817Z,19.17
2018-08-13T04:05:11.449Z,19.15
2018-08-13T04:07:40.676Z,19.22
2018-08-13T04:10:11.503Z,19.20
2018-08-13T04:12:42.039Z,19.20
2018-08-13T04:15:12.669Z,19.13
2018-08-13T04:17:42.336Z,19.07
2018-08-13T04:20:12.660Z,18.97
2018-08-13T04:22:42.185Z,18.97
2018-08-13T04:25:11.573Z,19.04
2018-08-13T04:27:41.393Z,19.01
2018-08-13T04:30:14.047Z,18.95
2018-08-13T04:32:44.124Z,18.97
2018-08-13T04:35:13.215Z,18.92
2018-08-13T04:37:43.396Z,18.87
2018-08-13T04:40:14.869Z,18.92
2018-08-13T04:42:45.872Z,18.89
2018-08-13T04:45:15.004Z,18.87
2018-08-13T04:47:52.687Z,18.88
2018-08-13T04:50:21.797Z,18.83
2018-08-13T04:52:50.957Z,18.95
2018-08-13T04:55:20.778Z,18.99
2018-08-13T04:57:49.873Z,19.02
2018-08-13T05:00:18.955Z,19.08
2018-08-13T05:02:48.067Z,19.14
2018-08-13T05:05:17.199Z,19.12
2018-08-13T05:07:46.295Z,19.21
2018-08-13T05:10:15.382Z,19.31
2018-08-13T05:12:44.482Z,19.36
2018-08-13T05:15:13.591Z,19.39
2018-08-13T05:17:42.664Z,19.43
2018-08-13T05:20:11.800Z,19.45
2018-08-13T05:22:40.974Z,19.48
2018-08-13T05:25:11.004Z,19.55
2018-08-13T05:27:40.866Z,19.66
2018-08-13T05:30:11.295Z,19.72
2018-08-13T05:32:40.409Z,19.77
2018-08-13T05:35:10.595Z,19.87
2018-08-13T05:37:39.898Z,20.06
2018-08-13T05:40:10.311Z,20.32
2018-08-13T05:42:40.057Z,20.43
2018-08-13T05:45:09.849Z,20.56
2018-08-13T05:47:39.274Z,20.68
2018-08-13T05:50:09.883Z,20.77
2018-08-13T05:52:39.031Z,20.85
2018-08-13T05:55:08.803Z,20.95
2018-08-13T05:57:37.972Z,21.01
2018-08-13T06:00:09.630Z,21.06
2018-08-13T06:02:40.283Z,21.18
2018-08-13T06:05:10.304Z,21.26
2018-08-13T06:07:39.844Z,21.34
2018-08-13T06:10:10.552Z,21.43
2018-08-13T06:12:40.242Z,21.49
2018-08-13T06:15:11.207Z,21.60
2018-08-13T06:17:40.299Z,21.71
2018-08-13T06:20:11.016Z,21.76
2018-08-13T06:22:41.348Z,21.89
2018-08-13T06:25:11.224Z,22.01
2018-08-13T06:27:40.392Z,22.05
2018-08-13T06:30:12.243Z,22.23
2018-08-13T06:32:42.096Z,22.21
2018-08-13T06:35:12.242Z,22.35
2018-08-13T06:37:42.253Z,22.41
2018-08-13T06:40:11.717Z,22.53
2018-08-13T06:42:40.859Z,22.68
2018-08-13T06:45:10.743Z,22.74
2018-08-13T06:47:40.581Z,22.80
2018-08-13T06:50:11.740Z,22.89
2018-08-13T06:52:40.856Z,22.95
2018-08-13T06:55:10.114Z,23.05
2018-08-13T06:57:39.263Z,23.05
2018-08-13T07:00:10.769Z,23.28
2018-08-13T07:02:39.871Z,23.40
2018-08-13T07:05:10.446Z,23.41
2018-08-13T07:07:40.099Z,23.48
2018-08-13T07:10:11.264Z,23.67
2018-08-13T07:12:41.889Z,23.64
2018-08-13T07:15:11.486Z,23.75
2018-08-13T07:17:40.588Z,23.67
2018-08-13T07:20:12.328Z,23.87
2018-08-13T07:22:41.499Z,24.20
2018-08-13T07:25:10.883Z,24.27
2018-08-13T07:27:40.806Z,24.73
2018-08-13T07:30:12.562Z,24.66
2018-08-13T07:32:42.055Z,24.87
2018-08-13T07:36:40.675Z,24.81
2018-08-13T07:39:10.540Z,25.00
2018-08-13T07:41:39.767Z,25.03
2018-08-13T07:44:09.022Z,24.90
2018-08-13T07:46:38.200Z,24.77
2018-08-13T07:49:07.314Z,24.85
2018-08-13T07:51:36.581Z,25.00
2018-08-13T07:54:05.634Z,25.08
2018-08-13T07:56:34.716Z,25.04
2018-08-13T07:59:04.056Z,25.05
2018-08-13T08:01:33.213Z,25.23
2018-08-13T08:04:02.321Z,25.48
2018-08-13T08:06:31.461Z,25.60
2018-08-13T08:09:00.609Z,25.78
2018-08-13T08:11:29.676Z,25.92
2018-08-13T08:13:58.796Z,26.15
2018-08-13T08:16:27.888Z,26.16
2018-08-13T08:18:56.986Z,26.18
2018-08-13T08:21:26.156Z,26.28
2018-08-13T08:23:55.184Z,26.21
2018-08-13T08:26:24.288Z,25.87
2018-08-13T08:28:53.392Z,25.89
2018-08-13T08:31:22.508Z,25.69
2018-08-13T08:33:51.672Z,26.04
2018-08-13T08:36:20.792Z,25.97
2018-08-13T08:38:49.983Z,25.87
2018-08-13T08:41:19.091Z,25.98
2018-08-13T08:43:48.211Z,26.13
2018-08-13T08:46:17.305Z,26.19
2018-08-13T08:48:46.471Z,25.95
2018-08-13T08:51:15.593Z,25.97
2018-08-13T08:53:44.672Z,26.27
2018-08-13T08:56:13.767Z,26.33
2018-08-13T08:58:42.873Z,26.28
2018-08-13T09:01:11.947Z,26.22
2018-08-13T09:03:41.031Z,26.34
2018-08-13T09:06:10.319Z,26.64
2018-08-13T09:08:39.515Z,26.94
2018-08-13T09:11:08.614Z,27.09
2018-08-13T09:13:38.710Z,27.21
2018-08-13T09:16:07.908Z,27.20
2018-08-13T09:18:48.281Z,27.35
2018-08-13T09:21:28.508Z,26.92
2018-08-13T09:24:09.736Z,26.76
2018-08-13T09:26:50.648Z,26.85
2018-08-13T09:29:31.856Z,27.19
2018-08-13T09:32:26.555Z,27.23
2018-08-13T09:39:28.229Z,26.90
2018-08-13T09:41:57.311Z,27.24
2018-08-13T09:44:26.425Z,27.01
2018-08-13T09:46:55.536Z,26.90
2018-08-13T09:49:24.653Z,26.94
2018-08-13T09:51:53.747Z,26.89
2018-08-13T09:54:22.832Z,26.81
2018-08-13T09:56:52.020Z,26.77
2018-08-13T09:59:21.141Z,26.76
2018-08-13T10:01:50.332Z,27.07
2018-08-13T10:04:19.420Z,27.02
2018-08-13T10:06:48.628Z,27.17
2018-08-13T10:09:17.874Z,26.95
2018-08-13T10:11:47.104Z,26.92
2018-08-13T10:14:16.180Z,27.38
2018-08-13T10:16:45.363Z,27.24
2018-08-13T10:19:14.585Z,27.25
2018-08-13T10:21:43.696Z,27.44
2018-08-13T10:24:12.843Z,27.38
2018-08-13T10:26:41.963Z,27.27
2018-08-13T10:29:11.180Z,27.05
2018-08-13T10:31:40.304Z,27.22
2018-08-13T10:34:09.491Z,27.58
2018-08-13T10:36:38.600Z,27.60
2018-08-13T10:39:09.155Z,27.20
2018-08-13T10:41:38.692Z,27.20
2018-08-13T10:44:09.200Z,27.10
2018-08-13T10:46:38.611Z,27.28
2018-08-13T10:49:07.740Z,27.45
2018-08-13T10:51:36.821Z,27.61
2018-08-13T10:54:06.129Z,27.50
2018-08-13T10:56:35.235Z,27.78
2018-08-13T10:59:04.551Z,27.76
2018-08-13T11:01:33.739Z,27.30
2018-08-13T11:04:02.938Z,27.25
2018-08-13T11:06:32.047Z,27.19
2018-08-13T11:09:01.227Z,27.21
2018-08-13T11:11:30.447Z,27.53
2018-08-13T11:13:59.559Z,27.63
2018-08-13T11:16:28.654Z,27.59
2018-08-13T11:18:57.983Z,27.69
2018-08-13T11:21:27.101Z,27.49
2018-08-13T11:23:56.550Z,27.93
2018-08-13T11:26:25.696Z,27.72
2018-08-13T11:28:54.792Z,27.86
2018-08-13T11:31:23.877Z,27.90
2018-08-13T11:33:53.323Z,27.94
2018-08-13T11:36:22.524Z,27.95
2018-08-13T11:38:51.704Z,27.92
2018-08-13T11:41:20.810Z,27.98
2018-08-13T11:43:49.908Z,27.97
2018-08-13T11:46:19.141Z,27.99
2018-08-13T11:48:48.172Z,27.97
2018-08-13T11:51:17.292Z,28.02
2018-08-13T11:53:46.395Z,28.11
2018-08-13T11:56:15.542Z,28.39
2018-08-13T11:58:44.695Z,28.42
2018-08-13T12:01:13.895Z,28.62
2018-08-13T12:03:42.996Z,28.56
2018-08-13T12:06:12.131Z,28.88
2018-08-13T12:08:41.246Z,28.93
2018-08-13T12:11:10.391Z,29.26
2018-08-13T12:13:39.558Z,29.79
2018-08-13T12:16:09.275Z,30.07
2018-08-13T12:18:38.351Z,30.31
2018-08-13T12:21:07.564Z,30.55
2018-08-13T12:23:36.682Z,30.90
2018-08-13T12:26:05.811Z,31.34
2018-08-13T12:28:34.938Z,31.15
2018-08-13T12:31:04.111Z,31.18
2018-08-13T12:33:33.678Z,31.69
2018-08-13T12:36:02.938Z,32.40
2018-08-13T12:38:32.139Z,33.03
2018-08-13T12:41:01.328Z,33.03
2018-08-13T12:43:30.451Z,33.18
2018-08-13T12:45:59.641Z,32.39
2018-08-13T12:48:28.823Z,31.68
2018-08-13T12:50:58.225Z,31.12
2018-08-13T12:53:27.335Z,30.78
2018-08-13T12:55:56.555Z,30.21
2018-08-13T12:58:25.761Z,29.74
2018-08-13T13:01:00.676Z,29.58
2018-08-13T13:03:30.028Z,30.49
2018-08-13T13:05:59.151Z,30.62
2018-08-13T13:08:28.384Z,29.77
2018-08-13T13:10:57.653Z,29.45
2018-08-13T13:13:26.843Z,29.41
2018-08-13T13:15:56.056Z,28.94
2018-08-13T13:18:25.441Z,28.74
2018-08-13T13:20:54.755Z,28.70
2018-08-13T13:23:23.855Z,29.04
2018-08-13T13:25:52.979Z,28.82
2018-08-13T13:28:22.130Z,28.42
2018-08-13T13:30:51.237Z,28.26
2018-08-13T13:33:20.393Z,28.31
2018-08-13T13:35:49.602Z,28.43
2018-08-13T13:38:18.760Z,28.72
2018-08-13T13:40:47.876Z,28.61
2018-08-13T13:43:17.108Z,28.50
2018-08-13T13:45:46.193Z,28.30
2018-08-13T13:48:15.384Z,28.01
2018-08-13T13:50:44.512Z,27.85
2018-08-13T13:53:13.716Z,27.59
2018-08-13T13:55:42.826Z,27.49
2018-08-13T13:58:11.916Z,27.35
2018-08-13T14:00:41.128Z,27.19
2018-08-13T14:03:10.275Z,26.77
2018-08-13T14:05:46.284Z,26.61
2018-08-13T14:09:44.487Z,26.45
2018-08-13T14:12:13.560Z,26.20
2018-08-13T14:14:42.698Z,25.91
2018-08-13T14:17:11.952Z,25.78
2018-08-13T14:19:41.086Z,25.72
2018-08-13T14:22:10.127Z,25.66
2018-08-13T14:24:39.451Z,25.53
2018-08-13T14:27:08.610Z,25.24
2018-08-13T14:29:37.752Z,24.73
2018-08-13T14:32:06.831Z,24.15
2018-08-13T14:34:35.958Z,23.17
2018-08-13T14:37:05.105Z,21.87
2018-08-13T14:39:34.233Z,20.85
2018-08-13T14:42:03.366Z,20.62
2018-08-13T14:44:32.501Z,19.34
2018-08-13T14:47:01.611Z,19.34
2018-08-13T14:49:30.726Z,19.11
2018-08-13T14:51:59.842Z,19.02
2018-08-13T14:54:28.941Z,18.82
2018-08-13T14:56:58.061Z,18.98
2018-08-13T14:59:27.233Z,19.23
2018-08-13T15:01:56.352Z,19.00
2018-08-13T15:04:25.481Z,18.97
2018-08-13T15:06:54.640Z,19.00
2018-08-13T15:09:23.845Z,18.92
2018-08-13T15:11:53.005Z,18.79
2018-08-13T15:14:22.124Z,18.80
2018-08-13T15:16:51.262Z,18.89
2018-08-13T15:19:20.432Z,18.82
2018-08-13T15:21:49.628Z,18.75
2018-08-13T15:24:18.804Z,18.68
2018-08-13T15:26:47.974Z,18.77
2018-08-13T15:29:17.080Z,18.82
2018-08-13T15:31:46.200Z,19.14
2018-08-13T15:34:15.371Z,18.75
2018-08-13T15:36:44.472Z,18.83
2018-08-13T15:39:13.613Z,18.79
2018-08-13T15:41:42.775Z,18.69
2018-08-13T15:44:11.915Z,18.81
2018-08-13T15:46:41.021Z,18.70
2018-08-13T15:49:10.179Z,19.06
2018-08-13T15:51:39.355Z,18.92
2018-08-13T15:54:08.498Z,18.89
2018-08-13T15:56:37.625Z,19.18
2018-08-13T15:59:06.825Z,19.06
2018-08-13T16:01:35.944Z,18.97
2018-08-13T16:04:05.141Z,18.99
2018-08-13T16:06:34.291Z,19.03
2018-08-13T16:09:03.461Z,18.91
2018-08-13T16:11:32.584Z,18.93
2018-08-13T16:14:01.789Z,19.06
2018-08-13T16:16:30.917Z,19.05
2018-08-13T16:19:00.058Z,18.96
2018-08-13T16:21:29.188Z,19.08
2018-08-13T16:23:58.391Z,18.93
2018-08-13T16:26:27.508Z,19.05
2018-08-13T16:28:56.692Z,19.03
2018-08-13T16:31:25.788Z,18.97
2018-08-13T16:33:54.982Z,18.94
2018-08-13T16:36:24.080Z,18.88
2018-08-13T16:38:53.233Z,19.04
2018-08-13T16:41:22.356Z,18.93
2018-08-13T16:43:51.718Z,18.96
2018-08-13T16:46:20.848Z,19.06
2018-08-13T16:48:49.995Z,19.09
2018-08-13T16:51:19.136Z,19.06
2018-08-13T16:53:48.274Z,19.12
2018-08-13T16:56:17.441Z,19.39
2018-08-13T16:58:46.550Z,19.51
2018-08-13T17:01:15.674Z,19.33
2018-08-13T17:03:44.838Z,19.32
2018-08-13T17:06:13.943Z,19.19
2018-08-13T17:08:43.067Z,19.19
2018-08-13T17:11:12.221Z,19.42
2018-08-13T17:13:41.385Z,19.66
2018-08-13T17:16:10.623Z,19.93
2018-08-13T17:18:39.763Z,20.03
2018-08-13T17:21:08.917Z,20.10
2018-08-13T17:23:38.094Z,20.07
2018-08-13T17:26:07.248Z,20.06
2018-08-13T17:28:36.441Z,20.10
2018-08-13T17:31:05.605Z,19.97
2018-08-13T17:33:34.740Z,19.98
2018-08-13T17:36:04.027Z,19.89
2018-08-13T17:38:33.141Z,19.93
2018-08-13T17:41:02.300Z,19.89
2018-08-13T17:43:31.432Z,19.69
2018-08-13T17:46:00.644Z,19.77
2018-08-13T17:48:29.817Z,20.01
2018-08-13T17:50:58.992Z,19.85
2018-08-13T17:53:28.104Z,19.81
2018-08-13T17:55:57.564Z,19.84
2018-08-13T17:58:26.679Z,19.82
2018-08-13T18:00:55.844Z,19.68
2018-08-13T18:03:24.998Z,19.60
2018-08-13T18:05:54.140Z,19.56
2018-08-13T18:08:23.265Z,19.54
2018-08-13T18:10:52.389Z,19.51
2018-08-13T18:13:21.588Z,19.52
2018-08-13T18:15:50.737Z,19.49
2018-08-13T18:18:19.910Z,19.41
2018-08-13T18:20:49.059Z,19.39
2018-08-13T18:23:18.168Z,19.39
2018-08-13T18:25:47.333Z,19.30
2018-08-13T18:28:16.453Z,19.24
2018-08-13T18:30:45.563Z,19.23
2018-08-13T18:33:14.702Z,19.21
2018-08-13T18:35:43.805Z,19.14
2018-08-13T18:38:12.943Z,19.18
2018-08-13T18:40:42.081Z,19.16
2018-08-13T18:43:11.194Z,19.19
2018-08-13T18:45:40.493Z,19.12
2018-08-13T18:48:09.851Z,19.10
2018-08-13T18:50:39.033Z,19.06
2018-08-13T18:53:08.120Z,19.03
2018-08-13T18:55:37.266Z,19.01
2018-08-13T18:58:06.393Z,19.00
2018-08-13T19:00:35.719Z,18.97
2018-08-13T19:03:04.905Z,18.99
2018-08-13T19:05:35.746Z,18.92
2018-08-13T19:08:04.880Z,18.88
2018-08-13T19:10:33.998Z,18.89
2018-08-13T19:13:03.132Z,18.87
2018-08-13T19:15:32.274Z,18.82
2018-08-13T19:18:02.369Z,18.78
2018-08-13T19:20:31.501Z,18.78
2018-08-13T19:23:00.755Z,18.80
2018-08-13T19:25:30.021Z,18.81
2018-08-13T19:27:59.227Z,18.76
2018-08-13T19:30:28.370Z,18.76
2018-08-13T19:32:57.601Z,18.77
2018-08-13T19:35:26.766Z,18.79
2018-08-13T19:37:55.961Z,18.89
2018-08-13T19:40:26.060Z,18.75
2018-08-13T19:42:55.182Z,18.73
2018-08-13T19:45:24.628Z,18.78
2018-08-13T19:47:54.116Z,18.77
2018-08-13T19:50:23.361Z,18.76
2018-08-13T19:52:52.928Z,18.85
2018-08-13T19:55:22.359Z,18.72
2018-08-13T19:57:52.153Z,18.76
2018-08-13T20:00:23.456Z,18.75
2018-08-13T20:02:53.108Z,18.69
2018-08-13T20:05:23.710Z,18.73
2018-08-13T20:07:53.908Z,18.71
2018-08-13T20:10:23.098Z,18.67
2018-08-13T20:12:53.209Z,18.68
2018-08-13T20:15:22.616Z,18.61
2018-08-13T20:17:51.756Z,18.58
2018-08-13T20:20:21.476Z,18.56
2018-08-13T20:22:51.169Z,18.62
2018-08-13T20:25:21.534Z,18.61
2018-08-13T20:27:51.620Z,18.61
2018-08-13T20:30:22.980Z,18.59
2018-08-13T20:32:53.212Z,18.57
2018-08-13T20:35:22.529Z,18.60
2018-08-13T20:37:51.729Z,18.60
2018-08-13T20:40:21.641Z,18.65
2018-08-13T20:42:51.144Z,18.69
2018-08-13T20:45:21.363Z,18.60
2018-08-13T20:47:50.565Z,18.53
2018-08-13T20:50:22.113Z,18.49
2018-08-13T20:52:52.557Z,18.57
2018-08-13T20:55:25.063Z,18.57
2018-08-13T20:57:54.226Z,18.66
2018-08-13T21:00:25.933Z,18.54
2018-08-13T21:02:55.230Z,18.46
2018-08-13T21:05:24.444Z,18.45
2018-08-13T21:07:53.608Z,18.42
2018-08-13T21:10:24.453Z,18.41
2018-08-13T21:12:53.778Z,18.41
2018-08-13T21:15:22.989Z,18.43
2018-08-13T21:17:52.100Z,18.39
2018-08-13T21:20:24.553Z,18.39
2018-08-13T21:22:53.818Z,18.39
2018-08-13T21:25:23.044Z,18.39
2018-08-13T21:27:52.297Z,18.41
2018-08-13T21:30:21.518Z,18.44
2018-08-13T21:32:50.668Z,18.42
2018-08-13T21:35:22.086Z,18.39
2018-08-13T21:37:51.357Z,18.40
2018-08-13T21:40:20.649Z,18.42
2018-08-13T21:42:50.281Z,18.41
2018-08-13T21:45:19.418Z,18.53
2018-08-13T21:47:48.634Z,18.46
2018-08-13T21:50:20.039Z,18.67
2018-08-13T21:52:49.939Z,18.58
2018-08-13T21:55:19.376Z,18.49
2018-08-13T21:57:48.533Z,18.50
2018-08-13T22:00:32.270Z,18.49
2018-08-13T22:03:02.480Z,18.64
2018-08-13T22:05:31.660Z,18.64
2018-08-13T22:08:00.801Z,18.61
2018-08-13T22:10:29.916Z,18.56
2018-08-13T22:12:59.021Z,18.59
2018-08-13T22:15:29.045Z,18.57
2018-08-13T22:18:00.500Z,18.53
2018-08-13T22:20:30.617Z,18.59
2018-08-13T22:23:01.095Z,18.65
2018-08-13T22:25:36.095Z,18.63
2018-08-13T22:28:05.911Z,18.67
2018-08-13T22:30:35.163Z,18.68
2018-08-13T22:33:04.438Z,18.65
2018-08-13T22:35:33.579Z,18.77
2018-08-13T22:38:02.680Z,18.77
2018-08-13T22:40:31.772Z,18.69
2018-08-13T22:43:00.956Z,18.73
2018-08-13T22:45:30.057Z,18.54
2018-08-13T22:47:59.161Z,18.47
2018-08-13T22:50:28.289Z,18.44
2018-08-13T22:52:57.430Z,18.43
2018-08-13T22:55:26.539Z,18.42
2018-08-13T22:57:55.704Z,18.36
2018-08-13T23:00:24.811Z,18.30
2018-08-13T23:02:53.928Z,18.37
2018-08-13T23:05:25.411Z,18.33
2018-08-13T23:07:54.562Z,18.21
2018-08-13T23:10:24.675Z,18.26
2018-08-13T23:12:55.112Z,18.24
2018-08-13T23:15:24.315Z,18.32
2018-08-13T23:17:54.037Z,18.41
2018-08-13T23:20:25.081Z,18.23
2018-08-13T23:23:03.230Z,18.21
2018-08-13T23:25:33.661Z,18.15
2018-08-13T23:28:04.255Z,18.21
2018-08-13T23:30:33.417Z,18.16
2018-08-13T23:33:02.777Z,18.18
2018-08-13T23:35:32.374Z,18.16
2018-08-13T23:38:01.521Z,18.13
2018-08-13T23:40:30.672Z,18.08
2018-08-13T23:42:59.800Z,18.00
2018-08-13T23:45:31.332Z,18.01
2018-08-13T23:48:00.469Z,18.01
2018-08-13T23:50:30.024Z,17.95
2018-08-13T23:53:00.476Z,17.93
2018-08-13T23:55:35.209Z,17.88
2018-08-13T23:58:05.555Z,17.89
